createdAt,value
2019-01-03T00:01:36.094Z,312.00
2019-01-03T00:04:25.088Z,326.50
2019-01-03T00:07:24.058Z,296.75
2019-01-03T00:10:12.517Z,310.50
2019-01-03T00:13:01.273Z,323.75
2019-01-03T00:15:50.333Z,325.50
2019-01-03T00:18:50.036Z,304.25
2019-01-03T00:21:38.895Z,317.25
2019-01-03T00:24:25.607Z,323.25
2019-01-03T00:27:21.432Z,284.50
2019-01-03T00:30:10.384Z,295.50
2019-01-03T00:32:58.826Z,314.50
2019-01-03T00:35:58.141Z,315.00
2019-01-03T00:38:56.414Z,311.50
2019-01-03T00:41:46.093Z,289.50
2019-01-03T00:44:54.603Z,306.75
2019-01-03T00:47:47.892Z,305.25
2019-01-03T00:50:45.643Z,304.00
2019-01-03T00:53:31.729Z,314.50
2019-01-03T00:56:34.508Z,311.75
2019-01-03T00:59:39.756Z,319.25
2019-01-03T01:02:42.250Z,329.50
2019-01-03T01:05:30.676Z,302.75
2019-01-03T01:08:27.009Z,303.50
2019-01-03T01:11:30.527Z,323.50
2019-01-03T01:14:19.572Z,345.75
2019-01-03T01:17:09.568Z,327.00
2019-01-03T01:20:06.414Z,332.50
2019-01-03T01:22:55.155Z,340.25
2019-01-03T01:25:43.906Z,352.25
2019-01-03T01:28:34.210Z,334.75
2019-01-03T01:31:26.952Z,339.00
2019-01-03T01:34:35.080Z,313.25
2019-01-03T01:37:24.030Z,319.50
2019-01-03T01:40:08.162Z,361.25
2019-01-03T01:42:57.122Z,330.00
2019-01-03T01:45:45.681Z,351.50
2019-01-03T01:48:39.964Z,352.50
2019-01-03T01:51:30.487Z,349.50
2019-01-03T01:54:22.716Z,363.75
2019-01-03T01:57:21.928Z,353.50
2019-01-03T02:00:18.124Z,367.00
2019-01-03T02:03:07.189Z,362.50
2019-01-03T02:05:54.454Z,382.50
2019-01-03T02:08:50.552Z,392.00
2019-01-03T02:11:43.179Z,370.25
2019-01-03T02:14:31.946Z,403.00
2019-01-03T02:17:24.895Z,391.75
2019-01-03T02:20:13.546Z,406.50
2019-01-03T02:23:02.303Z,421.50
2019-01-03T02:25:55.582Z,410.50
2019-01-03T02:28:55.075Z,408.50
2019-01-03T02:31:43.320Z,461.00
2019-01-03T02:34:36.485Z,487.80
2019-01-03T02:37:35.767Z,514.00
2019-01-03T02:40:25.360Z,515.80
2019-01-03T02:43:14.845Z,488.00
2019-01-03T02:46:10.752Z,465.60
2019-01-03T02:49:09.142Z,475.80
2019-01-03T02:52:02.080Z,468.00
2019-01-03T02:54:52.898Z,451.20
2019-01-03T02:57:46.156Z,450.40
2019-01-03T03:00:35.007Z,427.80
2019-01-03T03:03:23.754Z,417.75
2019-01-03T03:06:19.573Z,417.50
2019-01-03T03:09:07.410Z,427.50
2019-01-03T03:11:57.916Z,447.50
2019-01-03T03:14:48.209Z,459.80
2019-01-03T03:17:41.263Z,436.00
2019-01-03T03:20:28.492Z,458.80
2019-01-03T03:23:30.758Z,454.20
2019-01-03T03:26:21.348Z,429.50
2019-01-03T03:29:09.872Z,421.20
2019-01-03T03:32:01.225Z,429.40
2019-01-03T03:34:57.457Z,426.50
2019-01-03T03:37:50.403Z,438.25
2019-01-03T03:40:38.950Z,410.25
2019-01-03T03:43:32.634Z,405.75
2019-01-03T03:46:23.630Z,392.50
2019-01-03T03:49:32.354Z,363.00
2019-01-03T03:52:21.320Z,377.75
2019-01-03T03:55:23.799Z,371.25
2019-01-03T03:58:12.611Z,356.50
2019-01-03T04:01:15.018Z,346.00
2019-01-03T04:04:14.534Z,341.25
2019-01-03T04:07:18.234Z,324.50
2019-01-03T04:10:08.631Z,347.50
2019-01-03T04:13:07.924Z,347.00
2019-01-03T04:15:58.121Z,315.75
2019-01-03T04:18:48.757Z,316.75
2019-01-03T04:21:41.992Z,347.50
2019-01-03T04:24:30.738Z,332.75
2019-01-03T04:27:32.904Z,335.50
2019-01-03T04:30:35.889Z,328.00
2019-01-03T04:33:21.093Z,364.00
2019-01-03T04:36:19.712Z,330.75
2019-01-03T04:39:10.148Z,335.50
2019-01-03T04:42:13.033Z,328.75
2019-01-03T04:45:15.417Z,330.50
2019-01-03T04:48:04.058Z,304.00
2019-01-03T04:50:52.917Z,325.75
2019-01-03T04:53:41.378Z,319.50
2019-01-03T04:56:43.948Z,336.75
2019-01-03T04:59:34.131Z,328.25
2019-01-03T05:02:24.527Z,328.75
2019-01-03T05:05:17.084Z,309.50
2019-01-03T05:08:07.668Z,306.25
2019-01-03T05:10:54.838Z,303.75
2019-01-03T05:13:43.551Z,298.00
2019-01-03T05:16:32.709Z,316.75
2019-01-03T05:19:21.977Z,310.25
2019-01-03T05:22:27.555Z,294.75
2019-01-03T05:25:16.581Z,294.00
2019-01-03T05:28:18.248Z,299.50
2019-01-03T05:31:08.800Z,297.75
2019-01-03T05:34:05.374Z,315.00
2019-01-03T05:36:58.744Z,302.50
2019-01-03T05:39:57.894Z,301.25
2019-01-03T05:42:48.029Z,292.00
2019-01-03T05:45:50.193Z,302.50
2019-01-03T05:48:39.057Z,301.75
2019-01-03T05:51:27.812Z,298.75
2019-01-03T05:54:18.204Z,286.75
2019-01-03T05:57:07.266Z,289.25
2019-01-03T05:59:53.196Z,312.50
2019-01-03T06:02:45.305Z,311.75
2019-01-03T06:05:34.861Z,308.75
2019-01-03T06:08:23.631Z,308.50
2019-01-03T06:11:19.537Z,325.00
2019-01-03T06:14:08.402Z,327.25
2019-01-03T06:17:10.482Z,334.25
2019-01-03T06:20:00.648Z,322.50
2019-01-03T06:22:44.804Z,309.00
2019-01-03T06:25:45.226Z,332.25
2019-01-03T06:28:34.804Z,328.00
2019-01-03T06:31:43.430Z,343.75
2019-01-03T06:34:29.239Z,362.75
2019-01-03T06:37:18.379Z,332.00
2019-01-03T06:40:09.071Z,367.00
2019-01-03T06:43:02.437Z,346.25
2019-01-03T06:45:52.915Z,365.50
2019-01-03T06:48:38.928Z,349.25
2019-01-03T06:51:39.658Z,344.00
2019-01-03T06:54:32.617Z,357.25
2019-01-03T06:57:22.082Z,348.50
2019-01-03T07:00:18.014Z,341.75
2019-01-03T07:03:08.242Z,336.75
2019-01-03T07:05:57.575Z,342.50
2019-01-03T07:08:57.582Z,337.25
2019-01-03T07:12:07.135Z,335.25
2019-01-03T07:14:56.199Z,324.75
2019-01-03T07:17:52.636Z,313.25
2019-01-03T07:20:44.666Z,303.25
2019-01-03T07:23:50.102Z,316.25
2019-01-03T07:26:51.947Z,327.50
2019-01-03T07:29:41.954Z,317.50
2019-01-03T07:32:30.803Z,325.50
2019-01-03T07:35:19.347Z,321.75
2019-01-03T07:38:12.511Z,328.00
2019-01-03T07:41:02.617Z,328.75
2019-01-03T07:43:53.204Z,342.00
2019-01-03T07:46:42.677Z,327.75
2019-01-03T07:49:48.430Z,333.50
2019-01-03T07:52:36.885Z,328.00
2019-01-03T07:55:25.741Z,327.75
2019-01-03T07:58:14.379Z,334.75
2019-01-03T08:01:19.822Z,326.50
2019-01-03T08:04:11.972Z,320.50
2019-01-03T08:07:02.571Z,308.00
2019-01-03T08:10:11.629Z,317.25
2019-01-03T08:13:02.621Z,311.75
2019-01-03T08:16:00.574Z,330.25
2019-01-03T08:18:53.727Z,316.00
2019-01-03T08:21:49.971Z,322.25
2019-01-03T08:24:42.917Z,317.25
2019-01-03T08:27:31.670Z,304.75
2019-01-03T08:30:33.950Z,310.50
2019-01-03T08:33:22.605Z,304.75
2019-01-03T08:36:11.662Z,310.25
2019-01-03T08:39:04.719Z,302.50
2019-01-03T08:41:52.954Z,301.50
2019-01-03T08:44:52.468Z,292.00
2019-01-03T08:47:54.177Z,309.00
2019-01-03T08:50:40.626Z,309.50
2019-01-03T08:53:29.594Z,305.00
2019-01-03T08:56:29.842Z,274.00
2019-01-03T08:59:29.210Z,287.50
2019-01-03T09:02:37.217Z,275.25
2019-01-03T09:05:26.388Z,280.75
2019-01-03T09:08:13.206Z,278.50
2019-01-03T09:11:09.535Z,282.50
2019-01-03T09:13:58.075Z,275.50
2019-01-03T09:16:40.999Z,286.75
2019-01-03T09:19:30.976Z,271.75
2019-01-03T09:22:19.256Z,278.00
2019-01-03T09:25:20.891Z,280.50
2019-01-03T09:28:17.215Z,273.50
2019-01-03T09:31:07.244Z,271.25
2019-01-03T09:33:52.685Z,271.25
2019-01-03T09:36:41.844Z,244.25
2019-01-03T09:39:39.515Z,200.20
2019-01-03T09:42:28.475Z,196.80
2019-01-03T09:44:59.881Z,191.20
2019-01-03T09:47:32.071Z,189.00
2019-01-03T09:50:03.195Z,186.20
2019-01-03T09:52:34.443Z,190.60
2019-01-03T09:55:05.912Z,201.80
2019-01-03T09:57:37.213Z,226.25
2019-01-03T10:00:10.552Z,229.25
2019-01-03T10:02:41.883Z,262.50
2019-01-03T10:05:13.551Z,252.50
2019-01-03T10:07:44.910Z,280.25
2019-01-03T10:10:16.242Z,264.50
2019-01-03T10:12:47.567Z,265.50
2019-01-03T10:15:18.675Z,260.75
2019-01-03T10:17:50.756Z,254.50
2019-01-03T10:20:22.410Z,258.25
2019-01-03T10:22:54.015Z,245.25
2019-01-03T10:25:25.373Z,242.50
2019-01-03T10:27:56.596Z,209.00
2019-01-03T10:30:28.072Z,209.00
2019-01-03T10:32:59.583Z,198.80
2019-01-03T10:35:31.434Z,215.60
2019-01-03T10:38:02.538Z,234.25
2019-01-03T10:40:33.802Z,236.00
2019-01-03T10:43:05.291Z,248.50
2019-01-03T10:45:36.414Z,266.75
2019-01-03T10:48:08.408Z,270.00
2019-01-03T10:50:39.836Z,279.50
2019-01-03T10:53:11.223Z,271.25
2019-01-03T10:55:42.773Z,277.25
2019-01-03T10:58:14.062Z,275.75
2019-01-03T11:00:45.321Z,286.50
2019-01-03T11:03:16.604Z,271.50
2019-01-03T11:05:47.897Z,276.50
2019-01-03T11:08:19.122Z,276.25
2019-01-03T11:10:50.544Z,272.25
2019-01-03T11:13:21.944Z,254.00
2019-01-03T11:15:53.176Z,271.00
2019-01-03T11:18:25.189Z,264.00
2019-01-03T11:20:56.837Z,278.75
2019-01-03T11:23:28.153Z,254.50
2019-01-03T11:26:05.446Z,247.00
2019-01-03T11:28:36.689Z,259.25
2019-01-03T11:31:12.668Z,271.25
2019-01-03T11:33:52.835Z,266.00
2019-01-03T11:36:24.665Z,262.50
2019-01-03T11:38:59.565Z,258.25
2019-01-03T11:41:32.638Z,238.25
2019-01-03T11:44:05.802Z,246.75
2019-01-03T11:46:38.678Z,254.50
2019-01-03T11:49:11.238Z,263.00
2019-01-03T11:51:47.283Z,253.75
2019-01-03T11:54:18.847Z,261.50
2019-01-03T11:56:57.484Z,252.25
2019-01-03T11:59:29.251Z,253.25
2019-01-03T12:02:00.898Z,252.50
2019-01-03T12:04:32.039Z,262.50
2019-01-03T12:07:03.973Z,250.00
2019-01-03T12:09:35.150Z,267.50
2019-01-03T12:12:06.640Z,242.50
2019-01-03T12:14:38.284Z,255.50
2019-01-03T12:17:09.915Z,268.75
2019-01-03T12:19:42.137Z,261.25
2019-01-03T12:22:13.625Z,254.75
2019-01-03T12:24:45.119Z,256.50
2019-01-03T12:27:16.887Z,274.25
2019-01-03T12:29:48.187Z,258.50
2019-01-03T12:32:20.951Z,285.75
2019-01-03T12:34:52.286Z,275.00
2019-01-03T12:37:23.576Z,278.00
2019-01-03T12:39:54.816Z,273.00
2019-01-03T12:42:26.453Z,293.75
2019-01-03T12:44:57.738Z,292.00
2019-01-03T12:47:30.450Z,300.50
2019-01-03T12:50:02.558Z,278.00
2019-01-03T12:52:34.056Z,277.75
2019-01-03T12:55:05.580Z,274.25
2019-01-03T12:57:37.027Z,288.50
2019-01-03T13:00:12.668Z,303.50
2019-01-03T13:02:45.437Z,302.75
2019-01-03T13:05:16.747Z,279.00
2019-01-03T13:07:48.415Z,306.25
2019-01-03T13:10:21.003Z,300.25
2019-01-03T13:12:53.406Z,280.50
2019-01-03T13:15:25.037Z,302.75
2019-01-03T13:17:56.750Z,284.25
2019-01-03T13:20:28.609Z,287.00
2019-01-03T13:23:00.116Z,293.00
2019-01-03T13:25:31.597Z,295.25
2019-01-03T13:28:02.870Z,275.25
2019-01-03T13:30:34.122Z,280.50
2019-01-03T13:33:05.609Z,296.50
2019-01-03T13:35:36.968Z,306.75
2019-01-03T13:38:08.271Z,301.75
2019-01-03T13:40:39.245Z,303.25
2019-01-03T13:43:11.095Z,315.00
2019-01-03T13:45:42.178Z,313.75
2019-01-03T13:48:13.447Z,316.00
2019-01-03T13:50:44.843Z,361.50
2019-01-03T13:53:16.378Z,374.75
2019-01-03T13:55:47.478Z,362.25
2019-01-03T13:58:18.863Z,372.00
2019-01-03T14:00:50.010Z,369.25
2019-01-03T14:03:21.731Z,375.25
2019-01-03T14:05:52.910Z,406.00
2019-01-03T14:08:24.657Z,392.00
2019-01-03T14:10:55.819Z,393.25
2019-01-03T14:13:27.750Z,400.50
2019-01-03T14:15:58.915Z,405.25
2019-01-03T14:18:30.237Z,387.75
2019-01-03T14:21:02.001Z,392.25
2019-01-03T14:23:33.553Z,397.50
2019-01-03T14:26:04.801Z,408.00
2019-01-03T14:28:36.294Z,400.00
2019-01-03T14:31:07.387Z,392.50
2019-01-03T14:33:38.795Z,407.20
2019-01-03T14:36:09.966Z,392.25
2019-01-03T14:38:41.652Z,403.00
2019-01-03T14:41:13.786Z,402.50
2019-01-03T14:43:45.371Z,408.50
2019-01-03T14:46:16.545Z,418.00
2019-01-03T14:48:48.266Z,414.00
2019-01-03T14:51:20.218Z,393.25
2019-01-03T14:53:51.535Z,359.75
2019-01-03T14:56:22.737Z,389.75
2019-01-03T14:58:54.019Z,375.75
2019-01-03T15:01:25.325Z,359.50
2019-01-03T15:03:57.339Z,344.25
2019-01-03T15:06:28.601Z,331.75
2019-01-03T15:08:59.804Z,319.00
2019-01-03T15:11:30.779Z,323.25
2019-01-03T15:14:02.357Z,312.75
2019-01-03T15:16:33.510Z,325.25
2019-01-03T15:19:04.947Z,317.50
2019-01-03T15:21:36.610Z,291.75
2019-01-03T15:24:07.880Z,318.50
2019-01-03T15:26:39.291Z,298.00
2019-01-03T15:29:10.843Z,305.75
2019-01-03T15:31:42.557Z,294.00
2019-01-03T15:34:14.264Z,283.25
2019-01-03T15:36:45.588Z,283.25
2019-01-03T15:39:17.109Z,295.50
2019-01-03T15:41:48.271Z,296.25
2019-01-03T15:44:19.503Z,304.50
2019-01-03T15:46:50.681Z,302.50
2019-01-03T15:49:22.326Z,278.75
2019-01-03T15:51:54.106Z,309.75
2019-01-03T15:54:25.595Z,294.75
2019-01-03T15:56:56.693Z,313.25
2019-01-03T15:59:29.075Z,308.50
2019-01-03T16:02:00.720Z,311.25
2019-01-03T16:04:32.652Z,315.25
2019-01-03T16:07:03.772Z,306.50
2019-01-03T16:09:35.460Z,321.00
2019-01-03T16:12:07.023Z,325.75
2019-01-03T16:14:38.879Z,315.75
2019-01-03T16:17:10.495Z,297.75
2019-01-03T16:19:41.638Z,309.75
2019-01-03T16:22:13.055Z,306.25
2019-01-03T16:24:44.791Z,289.50
2019-01-03T16:27:15.941Z,278.25
2019-01-03T16:29:47.222Z,286.00
2019-01-03T16:32:18.220Z,279.00
2019-01-03T16:34:49.537Z,290.50
2019-01-03T16:37:20.521Z,280.75
2019-01-03T16:39:52.273Z,277.25
2019-01-03T16:42:25.335Z,284.25
2019-01-03T16:44:56.991Z,277.75
2019-01-03T16:47:28.236Z,290.25
2019-01-03T16:49:59.487Z,282.50
2019-01-03T16:52:31.440Z,294.00
2019-01-03T16:55:02.782Z,286.25
2019-01-03T16:57:34.521Z,261.00
2019-01-03T17:00:06.112Z,287.50
2019-01-03T17:02:38.582Z,279.75
2019-01-03T17:05:10.547Z,289.25
2019-01-03T17:07:41.595Z,307.00
2019-01-03T17:10:18.164Z,317.00
2019-01-03T17:12:49.194Z,295.25
2019-01-03T17:15:20.606Z,310.00
2019-01-03T17:17:52.261Z,298.25
2019-01-03T17:20:23.442Z,307.00
2019-01-03T17:22:55.390Z,291.25
2019-01-03T17:25:26.707Z,306.75
2019-01-03T17:27:58.200Z,287.00
2019-01-03T17:30:29.871Z,288.50
2019-01-03T17:33:01.405Z,296.75
2019-01-03T17:35:32.926Z,289.25
2019-01-03T17:38:04.608Z,285.50
2019-01-03T17:40:36.269Z,274.25
2019-01-03T17:43:07.422Z,267.25
2019-01-03T17:45:39.061Z,280.25
2019-01-03T17:48:11.467Z,290.25
2019-01-03T17:50:43.189Z,297.25
2019-01-03T17:53:14.772Z,287.25
2019-01-03T17:55:46.478Z,289.50
2019-01-03T17:58:18.004Z,283.75
2019-01-03T18:00:49.773Z,283.75
2019-01-03T18:03:21.431Z,286.75
2019-01-03T18:05:52.944Z,276.25
2019-01-03T18:08:24.073Z,278.50
2019-01-03T18:10:55.927Z,297.25
2019-01-03T18:13:27.075Z,288.25
2019-01-03T18:15:58.770Z,281.25
2019-01-03T18:18:30.259Z,281.50
2019-01-03T18:21:02.906Z,260.25
2019-01-03T18:23:34.975Z,279.25
2019-01-03T18:26:06.621Z,274.50
2019-01-03T18:28:37.964Z,271.75
2019-01-03T18:31:09.227Z,255.50
2019-01-03T18:33:40.526Z,281.25
2019-01-03T18:36:12.477Z,290.25
2019-01-03T18:38:44.083Z,269.50
2019-01-03T18:41:15.849Z,279.25
2019-01-03T18:43:46.841Z,287.25
2019-01-03T18:46:18.160Z,279.25
2019-01-03T18:48:50.648Z,275.50
2019-01-03T18:51:22.279Z,279.75
2019-01-03T18:53:54.215Z,285.75
2019-01-03T18:56:25.894Z,284.25
2019-01-03T18:58:57.301Z,290.50
2019-01-03T19:01:29.229Z,293.25
2019-01-03T19:04:00.280Z,282.00
2019-01-03T19:06:31.861Z,274.00
2019-01-03T19:09:03.078Z,260.50
2019-01-03T19:11:35.912Z,290.75
2019-01-03T19:14:07.421Z,275.75
2019-01-03T19:16:39.276Z,268.50
2019-01-03T19:19:10.818Z,281.00
2019-01-03T19:21:42.085Z,270.25
2019-01-03T19:24:13.816Z,272.25
2019-01-03T19:26:45.028Z,273.25
2019-01-03T19:29:16.191Z,265.25
2019-01-03T19:31:47.929Z,288.50
2019-01-03T19:34:19.530Z,267.75
2019-01-03T19:36:51.043Z,269.50
2019-01-03T19:39:22.701Z,277.50
2019-01-03T19:41:54.421Z,252.25
2019-01-03T19:44:25.519Z,262.50
2019-01-03T19:46:56.851Z,267.75
2019-01-03T19:49:28.015Z,263.75
2019-01-03T19:51:59.660Z,261.75
2019-01-03T19:54:32.337Z,265.50
2019-01-03T19:57:03.642Z,271.50
2019-01-03T19:59:35.090Z,264.00
2019-01-03T20:02:07.596Z,262.50
2019-01-03T20:04:39.237Z,258.50
2019-01-03T20:07:10.651Z,253.00
2019-01-03T20:09:42.146Z,252.75
2019-01-03T20:12:13.791Z,259.00
2019-01-03T20:14:45.000Z,248.25
2019-01-03T20:17:16.451Z,227.75
2019-01-03T20:19:47.461Z,260.50
2019-01-03T20:22:19.854Z,261.75
2019-01-03T20:24:51.365Z,243.00
2019-01-03T20:27:23.062Z,261.00
2019-01-03T20:29:54.298Z,252.75
2019-01-03T20:32:25.561Z,260.50
2019-01-03T20:34:56.934Z,243.75
2019-01-03T20:37:28.974Z,260.75
2019-01-03T20:40:00.338Z,249.25
2019-01-03T20:42:31.559Z,251.00
2019-01-03T20:45:02.918Z,239.00
2019-01-03T20:47:34.553Z,248.75
2019-01-03T20:50:05.927Z,228.25
2019-01-03T20:52:37.599Z,247.75
2019-01-03T20:55:10.520Z,266.25
2019-01-03T20:57:41.886Z,249.25
2019-01-03T21:00:14.861Z,250.00
2019-01-03T21:02:46.045Z,240.50
2019-01-03T21:05:17.201Z,242.25
2019-01-03T21:07:48.552Z,250.50
2019-01-03T21:10:19.710Z,244.50
2019-01-03T21:12:51.392Z,241.75
2019-01-03T21:15:22.609Z,228.50
2019-01-03T21:17:54.237Z,232.75
2019-01-03T21:20:25.316Z,264.25
2019-01-03T21:22:56.898Z,242.00
2019-01-03T21:25:28.723Z,243.25
2019-01-03T21:28:00.151Z,243.00
2019-01-03T21:30:32.456Z,234.25
2019-01-03T21:33:04.270Z,247.75
2019-01-03T21:35:35.424Z,249.75
2019-01-03T21:38:07.162Z,228.75
2019-01-03T21:40:38.152Z,246.75
2019-01-03T21:43:09.414Z,233.75
2019-01-03T21:45:40.799Z,238.00
2019-01-03T21:48:12.561Z,233.50
2019-01-03T21:50:43.717Z,244.25
2019-01-03T21:53:15.288Z,241.75
2019-01-03T21:55:46.945Z,259.50
2019-01-03T21:58:18.177Z,252.25
2019-01-03T22:00:49.344Z,239.50
2019-01-03T22:03:21.062Z,251.25
2019-01-03T22:05:52.209Z,236.50
2019-01-03T22:08:24.981Z,210.50
2019-01-03T22:10:57.626Z,230.00
2019-01-03T22:13:29.318Z,216.25
2019-01-03T22:16:01.731Z,220.75
2019-01-03T22:18:33.337Z,227.50
2019-01-03T22:21:04.650Z,228.25
2019-01-03T22:23:37.524Z,229.50
2019-01-03T22:26:09.122Z,226.00
2019-01-03T22:28:40.875Z,229.00
2019-01-03T22:31:12.014Z,224.25
2019-01-03T22:33:44.122Z,218.50
2019-01-03T22:36:15.420Z,230.75
2019-01-03T22:38:47.250Z,233.00
2019-01-03T22:41:18.488Z,229.25
2019-01-03T22:43:50.047Z,215.75
2019-01-03T22:46:21.167Z,210.25
2019-01-03T22:48:52.850Z,212.50
2019-01-03T22:51:24.156Z,217.50
2019-01-03T22:53:55.649Z,213.00
2019-01-03T22:56:27.177Z,226.50
2019-01-03T22:58:58.490Z,226.75
2019-01-03T23:01:29.697Z,201.75
2019-01-03T23:04:00.926Z,234.25
2019-01-03T23:06:32.191Z,215.50
2019-01-03T23:09:04.817Z,228.75
2019-01-03T23:11:36.303Z,214.00
2019-01-03T23:14:07.641Z,216.00
2019-01-03T23:16:38.789Z,225.25
2019-01-03T23:19:10.319Z,220.50
2019-01-03T23:21:41.829Z,211.25
2019-01-03T23:24:13.734Z,206.25
2019-01-03T23:26:46.375Z,218.75
2019-01-03T23:29:18.136Z,209.00
2019-01-03T23:31:49.492Z,212.75
2019-01-03T23:34:21.087Z,201.75
2019-01-03T23:36:52.231Z,212.75
2019-01-03T23:39:23.480Z,211.25
2019-01-03T23:41:54.980Z,204.50
2019-01-03T23:44:26.789Z,212.25
2019-01-03T23:46:58.011Z,198.75
2019-01-03T23:49:30.258Z,212.50
2019-01-03T23:52:01.586Z,230.00
2019-01-03T23:54:33.221Z,202.75
2019-01-03T23:57:04.901Z,200.00
2019-01-03T23:59:36.600Z,207.25
